createdAt,value
2019-05-17T00:02:08.127Z,87.72
2019-05-17T00:04:37.538Z,87.72
2019-05-17T00:07:07.086Z,87.98
2019-05-17T00:09:37.388Z,87.63
2019-05-17T00:12:07.564Z,87.30
2019-05-17T00:14:37.008Z,87.30
2019-05-17T00:17:07.132Z,87.84
2019-05-17T00:19:37.054Z,88.01
2019-05-17T00:22:07.351Z,88.01
2019-05-17T00:24:37.112Z,88.05
2019-05-17T00:27:06.897Z,88.05
2019-05-17T00:29:37.198Z,88.00
2019-05-17T00:32:06.714Z,87.69
2019-05-17T00:34:37.733Z,87.69
2019-05-17T00:37:07.376Z,87.69
2019-05-17T00:39:36.862Z,87.66
2019-05-17T00:42:07.036Z,87.66
2019-05-17T00:44:36.811Z,87.96
2019-05-17T00:47:06.686Z,88.17
2019-05-17T00:49:37.166Z,88.07
2019-05-17T00:52:07.211Z,88.07
2019-05-17T00:54:36.813Z,88.40
2019-05-17T00:57:07.504Z,88.37
2019-05-17T00:59:37.089Z,88.37
2019-05-17T01:02:07.110Z,88.44
2019-05-17T01:04:37.045Z,88.44
2019-05-17T01:07:07.091Z,88.44
2019-05-17T01:09:36.814Z,88.24
2019-05-17T01:12:07.083Z,88.20
2019-05-17T01:14:37.287Z,87.95
2019-05-17T01:17:07.305Z,88.10
2019-05-17T01:19:36.868Z,88.28
2019-05-17T01:22:07.545Z,88.28
2019-05-17T01:24:37.117Z,87.85
2019-05-17T01:27:06.731Z,87.85
2019-05-17T01:29:36.475Z,88.04
2019-05-17T01:32:06.854Z,87.93
2019-05-17T01:34:37.672Z,87.93
2019-05-17T01:37:07.918Z,87.84
2019-05-17T01:39:37.691Z,87.93
2019-05-17T01:42:07.211Z,87.86
2019-05-17T01:44:36.862Z,87.90
2019-05-17T01:47:07.405Z,87.88
2019-05-17T01:49:36.861Z,87.88
2019-05-17T01:52:07.477Z,87.92
2019-05-17T01:54:37.025Z,87.96
2019-05-17T01:57:07.309Z,87.93
2019-05-17T01:59:37.372Z,87.93
2019-05-17T02:02:10.392Z,87.78
2019-05-17T02:04:39.764Z,88.23
2019-05-17T02:07:09.138Z,88.23
2019-05-17T02:09:41.699Z,87.88
2019-05-17T02:12:09.752Z,87.93
2019-05-17T02:14:39.146Z,87.93
2019-05-17T02:17:08.509Z,87.82
2019-05-17T02:19:37.945Z,87.97
2019-05-17T02:22:07.585Z,88.00
2019-05-17T02:24:37.203Z,88.06
2019-05-17T02:27:06.845Z,88.06
2019-05-17T02:29:36.248Z,88.13
2019-05-17T02:32:05.873Z,88.15
2019-05-17T02:34:35.392Z,88.15
2019-05-17T02:37:04.777Z,88.53
2019-05-17T02:39:51.958Z,88.53
2019-05-17T02:42:05.485Z,88.60
2019-05-17T02:44:34.866Z,88.79
2019-05-17T02:47:04.305Z,88.33
2019-05-17T02:49:33.682Z,88.33
2019-05-17T02:52:03.525Z,88.66
2019-05-17T02:54:33.099Z,88.40
2019-05-17T02:57:05.684Z,88.40
2019-05-17T02:59:35.058Z,88.76
2019-05-17T03:02:04.562Z,88.24
2019-05-17T03:04:33.933Z,88.24
2019-05-17T03:07:04.028Z,88.26
2019-05-17T03:09:33.969Z,88.27
2019-05-17T03:12:03.973Z,88.29
2019-05-17T03:14:33.536Z,88.53
2019-05-17T03:17:03.563Z,88.53
2019-05-17T03:19:33.296Z,88.62
2019-05-17T03:22:07.181Z,88.63
2019-05-17T03:24:33.794Z,88.61
2019-05-17T03:27:03.393Z,88.37
2019-05-17T03:29:33.618Z,88.39
2019-05-17T03:32:08.470Z,88.53
2019-05-17T03:34:37.010Z,88.34
2019-05-17T03:37:07.587Z,88.50
2019-05-17T03:39:37.430Z,88.41
2019-05-17T03:42:06.811Z,88.61
2019-05-17T03:44:36.257Z,88.57
2019-05-17T03:47:06.106Z,88.43
2019-05-17T03:49:39.133Z,88.34
2019-05-17T03:52:06.627Z,88.30
2019-05-17T03:54:36.019Z,88.36
2019-05-17T03:57:05.436Z,88.41
2019-05-17T03:59:34.806Z,88.40
2019-05-17T04:02:04.302Z,88.32
2019-05-17T04:04:33.753Z,88.30
2019-05-17T04:07:03.640Z,88.28
2019-05-17T04:09:37.396Z,88.02
2019-05-17T04:12:04.351Z,88.10
2019-05-17T04:14:33.790Z,87.81
2019-05-17T04:17:03.405Z,87.40
2019-05-17T04:19:33.676Z,87.13
2019-05-17T04:22:04.009Z,86.92
2019-05-17T04:24:33.538Z,86.39
2019-05-17T04:27:03.785Z,86.35
2019-05-17T04:29:33.626Z,86.35
2019-05-17T04:32:03.990Z,85.96
2019-05-17T04:34:34.014Z,85.55
2019-05-17T04:37:04.551Z,85.48
2019-05-17T04:39:34.034Z,85.48
2019-05-17T04:42:04.183Z,85.41
2019-05-17T04:44:33.920Z,85.35
2019-05-17T04:47:04.800Z,85.35
2019-05-17T04:49:34.208Z,85.00
2019-05-17T04:52:03.909Z,85.22
2019-05-17T04:54:33.675Z,85.20
2019-05-17T04:57:03.246Z,85.18
2019-05-17T04:59:33.825Z,85.65
2019-05-17T05:02:03.897Z,85.26
2019-05-17T05:04:37.802Z,85.03
2019-05-17T05:07:04.591Z,85.03
2019-05-17T05:09:33.985Z,85.34
2019-05-17T05:12:06.141Z,85.35
2019-05-17T05:14:34.548Z,85.61
2019-05-17T05:17:04.049Z,85.61
2019-05-17T05:19:33.561Z,85.30
2019-05-17T05:22:04.483Z,85.21
2019-05-17T05:24:34.605Z,85.01
2019-05-17T05:27:06.775Z,85.01
2019-05-17T05:29:36.167Z,84.93
2019-05-17T05:32:05.712Z,83.97
2019-05-17T05:34:35.168Z,83.97
2019-05-17T05:37:04.548Z,83.97
2019-05-17T05:39:34.170Z,83.82
2019-05-17T05:42:07.926Z,83.93
2019-05-17T05:44:34.651Z,83.52
2019-05-17T05:47:06.786Z,83.01
2019-05-17T05:49:36.190Z,83.33
2019-05-17T05:52:05.567Z,83.33
2019-05-17T05:54:34.992Z,82.83
2019-05-17T05:57:04.369Z,82.31
2019-05-17T05:59:35.480Z,82.33
2019-05-17T06:02:04.997Z,82.15
2019-05-17T06:04:34.391Z,81.47
2019-05-17T06:07:03.790Z,81.22
2019-05-17T06:09:33.433Z,81.36
2019-05-17T06:12:03.496Z,80.72
2019-05-17T06:14:32.923Z,80.72
2019-05-17T06:17:03.195Z,82.50
2019-05-17T06:19:32.628Z,82.50
2019-05-17T06:22:02.802Z,82.84
2019-05-17T06:24:32.385Z,81.70
2019-05-17T06:27:02.108Z,81.96
2019-05-17T06:29:32.754Z,80.70
2019-05-17T06:32:02.726Z,80.52
2019-05-17T06:34:32.890Z,80.58
2019-05-17T06:37:03.457Z,80.03
2019-05-17T06:39:33.060Z,80.29
2019-05-17T06:42:02.841Z,80.46
2019-05-17T06:44:32.762Z,80.17
2019-05-17T06:47:03.658Z,79.49
2019-05-17T06:49:33.117Z,78.51
2019-05-17T06:52:02.657Z,79.13
2019-05-17T06:54:33.132Z,78.59
2019-05-17T06:57:04.012Z,76.14
2019-05-17T06:59:33.504Z,76.49
2019-05-17T07:02:02.910Z,75.41
2019-05-17T07:04:32.433Z,74.87
2019-05-17T07:07:20.695Z,74.55
2019-05-17T07:09:50.250Z,73.75
2019-05-17T07:12:20.192Z,73.02
2019-05-17T07:14:50.739Z,72.50
2019-05-17T07:17:20.254Z,72.07
2019-05-17T07:19:50.730Z,71.92
2019-05-17T07:22:21.190Z,71.80
2019-05-17T07:24:50.959Z,71.72
2019-05-17T07:27:20.371Z,71.39
2019-05-17T07:29:49.849Z,69.90
2019-05-17T07:32:19.491Z,68.42
2019-05-17T07:34:50.790Z,69.59
2019-05-17T07:37:20.113Z,69.07
2019-05-17T07:40:00.916Z,69.21
2019-05-17T07:42:20.694Z,68.68
2019-05-17T07:44:50.235Z,67.85
2019-05-17T07:47:20.310Z,67.96
2019-05-17T07:49:49.874Z,66.69
2019-05-17T07:52:20.592Z,66.50
2019-05-17T07:54:50.887Z,66.12
2019-05-17T07:57:20.786Z,62.91
2019-05-17T07:59:50.796Z,62.74
2019-05-17T08:02:20.466Z,61.83
2019-05-17T08:04:50.245Z,62.42
2019-05-17T08:07:19.817Z,62.96
2019-05-17T08:09:50.649Z,62.50
2019-05-17T08:12:20.127Z,64.06
2019-05-17T08:14:50.244Z,62.47
2019-05-17T08:17:20.073Z,61.26
2019-05-17T08:19:49.907Z,62.12
2019-05-17T08:22:20.237Z,61.92
2019-05-17T08:24:49.741Z,62.21
2019-05-17T08:27:20.078Z,61.51
2019-05-17T08:29:50.904Z,62.44
2019-05-17T08:32:20.911Z,62.03
2019-05-17T08:34:51.904Z,60.10
2019-05-17T08:37:21.445Z,60.21
2019-05-17T08:39:50.795Z,59.96
2019-05-17T08:42:20.538Z,59.22
2019-05-17T08:44:50.009Z,59.26
2019-05-17T08:47:20.957Z,58.69
2019-05-17T08:49:50.542Z,59.34
2019-05-17T08:52:20.154Z,57.33
2019-05-17T08:54:50.047Z,59.46
2019-05-17T08:57:20.447Z,58.40
2019-05-17T08:59:49.993Z,57.99
2019-05-17T09:02:19.860Z,57.77
2019-05-17T09:04:49.878Z,57.53
2019-05-17T09:07:20.372Z,58.10
2019-05-17T09:09:50.364Z,58.10
2019-05-17T09:12:20.616Z,59.13
2019-05-17T09:14:50.286Z,59.20
2019-05-17T09:17:19.648Z,59.39
2019-05-17T09:19:50.962Z,58.83
2019-05-17T09:22:20.142Z,58.83
2019-05-17T09:24:50.005Z,58.59
2019-05-17T09:27:19.905Z,58.23
2019-05-17T09:29:49.813Z,57.50
2019-05-17T09:32:20.112Z,57.10
2019-05-17T09:34:50.048Z,57.22
2019-05-17T09:37:22.443Z,57.22
2019-05-17T09:39:50.902Z,59.17
2019-05-17T09:42:20.931Z,59.30
2019-05-17T09:44:50.576Z,58.19
2019-05-17T09:47:20.650Z,58.41
2019-05-17T09:49:50.309Z,57.45
2019-05-17T09:52:20.226Z,57.31
2019-05-17T09:54:50.468Z,57.57
2019-05-17T09:57:20.498Z,58.40
2019-05-17T09:59:49.986Z,58.45
2019-05-17T10:02:20.358Z,57.92
2019-05-17T10:04:50.395Z,57.01
2019-05-17T10:07:20.706Z,55.50
2019-05-17T10:09:50.898Z,56.32
2019-05-17T10:12:20.453Z,56.44
2019-05-17T10:14:49.965Z,54.91
2019-05-17T10:17:21.166Z,55.89
2019-05-17T10:19:50.999Z,53.88
2019-05-17T10:22:20.741Z,53.52
2019-05-17T10:24:50.151Z,53.59
2019-05-17T10:27:20.111Z,52.33
2019-05-17T10:29:50.150Z,52.76
2019-05-17T10:32:20.573Z,52.36
2019-05-17T10:34:50.203Z,52.65
2019-05-17T10:37:20.304Z,51.80
2019-05-17T10:39:50.359Z,51.61
2019-05-17T10:42:20.910Z,52.21
2019-05-17T10:44:51.329Z,51.78
2019-05-17T10:47:21.620Z,51.21
2019-05-17T10:49:51.188Z,51.30
2019-05-17T10:52:20.817Z,52.56
2019-05-17T10:54:50.388Z,52.49
2019-05-17T10:57:19.826Z,50.52
2019-05-17T10:59:49.942Z,50.26
2019-05-17T11:02:19.817Z,50.93
2019-05-17T11:04:50.523Z,51.65
2019-05-17T11:07:20.273Z,51.46
2019-05-17T11:09:50.788Z,51.60
2019-05-17T11:12:20.875Z,50.38
2019-05-17T11:14:56.096Z,50.36
2019-05-17T11:17:21.490Z,50.85
2019-05-17T11:19:50.870Z,49.90
2019-05-17T11:22:20.408Z,49.19
2019-05-17T11:24:49.815Z,48.75
2019-05-17T11:27:19.165Z,48.60
2019-05-17T11:29:48.549Z,48.92
2019-05-17T11:32:18.090Z,50.23
2019-05-17T11:34:47.617Z,49.32
2019-05-17T11:37:17.019Z,49.58
2019-05-17T11:39:46.534Z,49.67
2019-05-17T11:42:15.989Z,49.22
2019-05-17T11:44:45.347Z,48.86
2019-05-17T11:47:14.739Z,49.08
2019-05-17T11:49:44.134Z,49.31
2019-05-17T11:52:13.705Z,49.68
2019-05-17T11:54:43.161Z,49.45
2019-05-17T11:57:12.602Z,48.14
2019-05-17T11:59:41.954Z,47.92
2019-05-17T12:02:11.554Z,47.93
2019-05-17T12:04:40.959Z,46.49
2019-05-17T12:07:10.656Z,46.29
2019-05-17T12:09:40.177Z,45.14
2019-05-17T12:12:09.726Z,45.88
2019-05-17T12:14:39.113Z,45.72
2019-05-17T12:17:08.611Z,46.49
2019-05-17T12:19:38.444Z,45.23
2019-05-17T12:22:07.805Z,43.30
2019-05-17T12:24:37.206Z,40.93
2019-05-17T12:27:06.582Z,38.95
2019-05-17T12:29:35.982Z,37.83
2019-05-17T12:32:06.027Z,38.58
2019-05-17T12:34:35.598Z,39.88
2019-05-17T12:37:07.340Z,40.60
2019-05-17T12:39:36.726Z,38.77
2019-05-17T12:42:06.217Z,36.77
2019-05-17T12:44:37.283Z,36.13
2019-05-17T12:47:06.921Z,36.68
2019-05-17T12:49:36.283Z,35.50
2019-05-17T12:52:05.785Z,34.13
2019-05-17T12:54:35.168Z,34.65
2019-05-17T12:57:05.202Z,34.84
2019-05-17T12:59:34.601Z,33.91
2019-05-17T13:02:04.045Z,32.48
2019-05-17T13:04:33.410Z,31.78
2019-05-17T13:07:02.803Z,30.80
2019-05-17T13:09:32.176Z,31.11
2019-05-17T13:12:01.569Z,29.02
2019-05-17T13:14:32.506Z,30.13
2019-05-17T13:17:01.906Z,28.91
2019-05-17T13:19:31.280Z,29.23
2019-05-17T13:22:00.689Z,30.17
2019-05-17T13:24:30.048Z,29.76
2019-05-17T13:26:59.549Z,29.33
2019-05-17T13:29:28.945Z,29.32
2019-05-17T13:31:58.419Z,29.46
2019-05-17T13:34:27.825Z,28.14
2019-05-17T13:36:57.262Z,27.31
2019-05-17T13:39:26.680Z,27.09
2019-05-17T13:41:56.046Z,26.22
2019-05-17T13:44:25.546Z,26.45
2019-05-17T13:46:54.940Z,27.35
2019-05-17T13:49:24.333Z,27.63
2019-05-17T13:51:53.702Z,26.92
2019-05-17T13:54:23.103Z,26.05
2019-05-17T13:56:52.469Z,26.44
2019-05-17T13:59:21.869Z,27.11
2019-05-17T14:01:51.240Z,27.30
2019-05-17T14:04:20.607Z,29.19
2019-05-17T14:06:50.033Z,29.75
2019-05-17T14:09:19.393Z,31.12
2019-05-17T14:11:48.831Z,32.39
2019-05-17T14:14:18.253Z,35.02
2019-05-17T14:16:47.630Z,35.21
2019-05-17T14:19:16.990Z,36.17
2019-05-17T14:21:46.572Z,37.88
2019-05-17T14:24:15.945Z,36.21
2019-05-17T14:26:45.340Z,36.88
2019-05-17T14:29:14.822Z,38.37
2019-05-17T14:31:44.282Z,37.40
2019-05-17T14:34:13.742Z,37.97
2019-05-17T14:36:43.181Z,37.82
2019-05-17T14:39:12.580Z,39.14
2019-05-17T14:41:42.020Z,38.16
2019-05-17T14:44:11.427Z,39.07
2019-05-17T14:46:40.820Z,40.15
2019-05-17T14:49:10.214Z,40.28
2019-05-17T14:51:39.571Z,40.69
2019-05-17T14:54:08.964Z,40.97
2019-05-17T14:56:38.325Z,41.14
2019-05-17T14:59:07.728Z,41.50
2019-05-17T15:01:37.197Z,41.77
2019-05-17T15:04:06.598Z,40.18
2019-05-17T15:06:35.972Z,38.31
2019-05-17T15:09:06.685Z,37.40
2019-05-17T15:11:36.080Z,37.63
2019-05-17T15:14:05.962Z,37.54
2019-05-17T15:16:35.408Z,37.96
2019-05-17T15:19:04.873Z,39.08
2019-05-17T15:21:34.255Z,39.99
2019-05-17T15:24:03.637Z,39.54
2019-05-17T15:26:35.668Z,40.10
2019-05-17T15:29:04.381Z,41.43
2019-05-17T15:31:33.827Z,40.83
2019-05-17T15:34:03.218Z,41.59
2019-05-17T15:36:32.660Z,42.05
2019-05-17T15:39:02.193Z,42.08
2019-05-17T15:41:31.590Z,41.25
2019-05-17T15:44:01.072Z,40.85
2019-05-17T15:46:30.474Z,41.32
2019-05-17T15:48:59.845Z,41.37
2019-05-17T15:51:29.214Z,41.32
2019-05-17T15:53:58.707Z,42.35
2019-05-17T15:56:28.095Z,41.37
2019-05-17T15:58:57.486Z,41.39
2019-05-17T16:01:26.868Z,42.29
2019-05-17T16:03:56.261Z,41.98
2019-05-17T16:06:25.632Z,40.52
2019-05-17T16:08:55.033Z,38.35
2019-05-17T16:11:24.500Z,36.37
2019-05-17T16:13:53.999Z,36.92
2019-05-17T16:16:23.462Z,38.14
2019-05-17T16:18:52.882Z,39.09
2019-05-17T16:21:22.359Z,39.86
2019-05-17T16:23:53.408Z,40.93
2019-05-17T16:26:22.864Z,40.89
2019-05-17T16:28:52.227Z,41.07
2019-05-17T16:31:21.615Z,40.97
2019-05-17T16:33:51.149Z,41.99
2019-05-17T16:36:20.638Z,42.72
2019-05-17T16:38:50.061Z,43.27
2019-05-17T16:41:19.509Z,43.41
2019-05-17T16:43:48.883Z,44.18
2019-05-17T16:46:18.270Z,45.17
2019-05-17T16:48:47.664Z,45.29
2019-05-17T16:51:17.101Z,44.71
2019-05-17T16:53:46.547Z,44.95
2019-05-17T16:56:15.933Z,45.02
2019-05-17T16:58:45.317Z,44.59
2019-05-17T17:01:14.703Z,44.19
2019-05-17T17:03:44.885Z,44.10
2019-05-17T17:06:14.360Z,44.12
2019-05-17T17:08:44.309Z,43.88
2019-05-17T17:11:13.794Z,43.99
2019-05-17T17:13:43.208Z,42.84
2019-05-17T17:16:12.568Z,43.10
2019-05-17T17:18:41.965Z,42.46
2019-05-17T17:21:11.601Z,41.62
2019-05-17T17:23:41.111Z,40.85
2019-05-17T17:26:10.483Z,40.96
2019-05-17T17:28:39.971Z,41.54
2019-05-17T17:31:13.798Z,42.56
2019-05-17T17:33:43.158Z,42.72
2019-05-17T17:36:12.623Z,42.87
2019-05-17T17:38:42.000Z,43.04
2019-05-17T17:41:11.389Z,43.40
2019-05-17T17:43:40.760Z,43.98
2019-05-17T17:46:10.155Z,44.97
2019-05-17T17:48:39.542Z,44.87
2019-05-17T17:51:09.124Z,44.38
2019-05-17T17:53:38.507Z,44.32
2019-05-17T17:56:07.911Z,44.38
2019-05-17T17:58:37.380Z,44.94
2019-05-17T18:01:06.872Z,45.37
2019-05-17T18:03:36.234Z,46.48
2019-05-17T18:06:05.765Z,46.02
2019-05-17T18:08:35.151Z,46.26
2019-05-17T18:11:04.542Z,46.28
2019-05-17T18:13:33.951Z,46.52
2019-05-17T18:16:03.330Z,46.68
2019-05-17T18:18:32.719Z,47.48
2019-05-17T18:21:02.218Z,48.03
2019-05-17T18:23:31.667Z,48.26
2019-05-17T18:26:01.065Z,48.96
2019-05-17T18:28:30.516Z,49.14
2019-05-17T18:30:59.977Z,49.45
2019-05-17T18:33:29.486Z,50.03
2019-05-17T18:35:58.857Z,50.22
2019-05-17T18:38:30.850Z,50.97
2019-05-17T18:41:00.263Z,51.46
2019-05-17T18:43:29.646Z,51.72
2019-05-17T18:45:59.064Z,52.05
2019-05-17T18:48:28.434Z,52.53
2019-05-17T18:50:57.833Z,53.04
2019-05-17T18:53:27.564Z,53.25
2019-05-17T18:55:56.993Z,53.90
2019-05-17T18:58:26.360Z,54.16
2019-05-17T19:00:55.873Z,55.03
2019-05-17T19:03:25.259Z,54.97
2019-05-17T19:05:54.757Z,54.91
2019-05-17T19:08:24.224Z,55.30
2019-05-17T19:10:53.744Z,55.58
2019-05-17T19:13:23.115Z,55.98
2019-05-17T19:15:52.479Z,56.33
2019-05-17T19:18:21.866Z,56.66
2019-05-17T19:20:51.279Z,56.69
2019-05-17T19:23:20.639Z,57.08
2019-05-17T19:25:50.250Z,57.42
2019-05-17T19:28:19.901Z,57.54
2019-05-17T19:30:50.289Z,57.68
2019-05-17T19:33:19.796Z,58.21
2019-05-17T19:35:49.177Z,58.40
2019-05-17T19:38:18.566Z,58.77
2019-05-17T19:40:47.975Z,58.64
2019-05-17T19:43:17.387Z,59.15
2019-05-17T19:45:46.756Z,59.67
2019-05-17T19:48:19.674Z,59.52
2019-05-17T19:50:47.949Z,59.94
2019-05-17T19:53:17.340Z,60.05
2019-05-17T19:55:46.854Z,60.18
2019-05-17T19:58:16.250Z,60.10
2019-05-17T20:00:45.902Z,60.42
2019-05-17T20:03:15.282Z,60.67
2019-05-17T20:05:44.688Z,60.78
2019-05-17T20:08:14.111Z,60.98
2019-05-17T20:10:43.523Z,61.15
2019-05-17T20:13:13.803Z,61.29
2019-05-17T20:15:43.223Z,61.48
2019-05-17T20:18:15.140Z,61.51
2019-05-17T20:20:44.806Z,61.67
2019-05-17T20:23:14.235Z,61.75
2019-05-17T20:25:44.412Z,61.99
2019-05-17T20:28:16.412Z,62.07
2019-05-17T20:30:45.797Z,62.44
2019-05-17T20:33:15.232Z,62.61
2019-05-17T20:35:44.607Z,62.72
2019-05-17T20:38:14.027Z,62.96
2019-05-17T20:40:43.542Z,63.29
2019-05-17T20:43:13.099Z,63.41
2019-05-17T20:45:42.682Z,63.29
2019-05-17T20:48:12.073Z,63.46
2019-05-17T20:50:41.586Z,63.73
2019-05-17T20:53:18.734Z,63.54
2019-05-17T20:55:42.682Z,63.55
2019-05-17T20:58:12.169Z,63.51
2019-05-17T21:00:41.757Z,63.66
2019-05-17T21:03:13.829Z,63.59
2019-05-17T21:05:42.394Z,63.95
2019-05-17T21:08:11.780Z,63.87
2019-05-17T21:10:41.200Z,64.02
2019-05-17T21:13:10.589Z,64.07
2019-05-17T21:15:47.358Z,64.21
2019-05-17T21:18:11.083Z,64.42
2019-05-17T21:20:40.517Z,64.75
2019-05-17T21:23:09.922Z,64.84
2019-05-17T21:25:39.320Z,65.13
2019-05-17T21:28:08.720Z,65.54
2019-05-17T21:30:38.251Z,65.03
2019-05-17T21:33:07.624Z,65.14
2019-05-17T21:35:37.005Z,65.36
2019-05-17T21:38:06.414Z,65.54
2019-05-17T21:40:35.797Z,65.65
2019-05-17T21:43:05.240Z,65.85
2019-05-17T21:45:34.670Z,65.97
2019-05-17T21:48:04.070Z,66.07
2019-05-17T21:50:33.453Z,66.15
2019-05-17T21:53:02.867Z,66.58
2019-05-17T21:55:32.332Z,66.49
2019-05-17T21:58:01.865Z,66.55
2019-05-17T22:01:06.490Z,66.81
2019-05-17T22:03:36.036Z,66.83
2019-05-17T22:06:05.426Z,66.93
2019-05-17T22:08:34.907Z,66.92
2019-05-17T22:11:04.312Z,67.06
2019-05-17T22:13:33.693Z,67.04
2019-05-17T22:16:18.237Z,67.36
2019-05-17T22:18:34.250Z,67.38
2019-05-17T22:21:03.678Z,67.21
2019-05-17T22:23:33.097Z,67.91
2019-05-17T22:26:02.488Z,67.76
2019-05-17T22:28:31.879Z,67.70
2019-05-17T22:31:01.270Z,67.51
2019-05-17T22:33:30.852Z,67.69
2019-05-17T22:36:00.254Z,67.99
2019-05-17T22:38:29.687Z,68.30
2019-05-17T22:40:59.108Z,68.77
2019-05-17T22:43:28.592Z,68.78
2019-05-17T22:45:58.006Z,68.90
2019-05-17T22:48:27.385Z,68.93
2019-05-17T22:50:56.766Z,68.86
2019-05-17T22:53:26.232Z,68.63
2019-05-17T22:55:55.620Z,68.78
2019-05-17T22:58:25.029Z,68.92
2019-05-17T23:00:54.420Z,69.10
2019-05-17T23:03:23.846Z,69.17
2019-05-17T23:05:53.236Z,69.31
2019-05-17T23:08:22.623Z,69.39
2019-05-17T23:10:52.030Z,69.46
2019-05-17T23:13:21.405Z,69.77
2019-05-17T23:16:04.745Z,69.92
2019-05-17T23:18:34.843Z,71.58
2019-05-17T23:21:04.602Z,71.71
2019-05-17T23:23:33.989Z,71.76
2019-05-17T23:26:03.403Z,72.07
2019-05-17T23:28:32.812Z,72.38
2019-05-17T23:31:02.220Z,72.47
2019-05-17T23:33:31.655Z,72.99
2019-05-17T23:36:01.039Z,73.02
2019-05-17T23:38:30.442Z,73.09
2019-05-17T23:40:59.840Z,73.35
2019-05-17T23:43:29.367Z,73.53
2019-05-17T23:45:58.748Z,73.55
2019-05-17T23:48:28.153Z,73.56
2019-05-17T23:50:58.042Z,74.07
2019-05-17T23:53:27.449Z,73.87
2019-05-17T23:55:56.834Z,73.85
2019-05-17T23:58:26.269Z,74.16
